createdAt,value
2022-08-18T00:01:06.044Z,31.80
2022-08-18T00:03:56.989Z,32.67
2022-08-18T00:06:45.371Z,33.70
2022-08-18T00:09:32.842Z,31.98
2022-08-18T00:12:23.624Z,33.63
2022-08-18T00:15:12.495Z,38.45
2022-08-18T00:17:58.495Z,37.55
2022-08-18T00:20:45.103Z,33.15
2022-08-18T00:23:32.497Z,32.63
2022-08-18T00:26:18.147Z,31.17
2022-08-18T00:29:04.569Z,37.33
2022-08-18T00:31:50.789Z,35.08
2022-08-18T00:34:36.588Z,30.95
2022-08-18T00:37:24.378Z,30.02
2022-08-18T00:40:13.657Z,31.35
2022-08-18T00:43:02.505Z,33.45
2022-08-18T00:45:48.477Z,25.63
2022-08-18T00:48:34.394Z,37.13
2022-08-18T00:51:26.615Z,38.63
2022-08-18T00:54:19.042Z,37.35
2022-08-18T00:57:06.784Z,38.08
2022-08-18T01:00:02.492Z,39.50
2022-08-18T01:02:54.412Z,38.63
2022-08-18T01:05:48.581Z,39.30
2022-08-18T01:08:34.234Z,38.83
2022-08-18T01:11:19.902Z,38.38
2022-08-18T01:14:09.030Z,37.42
2022-08-18T01:17:13.433Z,36.30
2022-08-18T01:20:17.916Z,37.60
2022-08-18T01:23:13.039Z,37.13
2022-08-18T01:26:03.646Z,37.00
2022-08-18T01:28:49.706Z,37.75
2022-08-18T01:31:53.254Z,37.05
2022-08-18T01:34:41.158Z,39.05
2022-08-18T01:37:26.580Z,39.00
2022-08-18T01:41:23.806Z,38.67
2022-08-18T01:43:21.177Z,38.47
2022-08-18T01:46:07.437Z,39.40
2022-08-18T01:48:53.779Z,38.00
2022-08-18T01:51:42.537Z,38.88
2022-08-18T01:54:30.090Z,37.88
2022-08-18T01:57:17.540Z,36.58
2022-08-18T02:00:03.305Z,36.95
2022-08-18T02:03:02.633Z,40.50
2022-08-18T02:05:50.853Z,40.23
2022-08-18T02:08:38.252Z,39.05
2022-08-18T02:11:27.757Z,39.10
2022-08-18T02:14:13.207Z,41.03
2022-08-18T02:17:02.472Z,40.25
2022-08-18T02:19:48.406Z,41.63
2022-08-18T02:22:34.424Z,40.28
2022-08-18T02:25:20.526Z,39.65
2022-08-18T02:28:06.440Z,42.53
2022-08-18T02:30:51.787Z,40.40
2022-08-18T02:33:37.238Z,41.03
2022-08-18T02:36:25.239Z,43.53
2022-08-18T02:39:11.781Z,40.88
2022-08-18T02:41:57.449Z,40.60
2022-08-18T02:44:43.391Z,41.00
2022-08-18T02:47:33.432Z,41.78
2022-08-18T02:50:20.036Z,44.65
2022-08-18T02:53:05.769Z,45.80
2022-08-18T02:55:51.347Z,36.47
2022-08-18T02:58:36.909Z,48.38
2022-08-18T03:01:25.599Z,44.67
2022-08-18T03:04:17.613Z,44.80
2022-08-18T03:07:05.725Z,39.47
2022-08-18T03:15:22.713Z,42.20
2022-08-18T03:18:12.404Z,37.17
2022-08-18T03:20:59.321Z,39.92
2022-08-18T03:23:45.490Z,39.08
2022-08-18T03:26:47.532Z,40.67
2022-08-18T03:29:34.341Z,41.05
2022-08-18T03:32:20.067Z,30.50
2022-08-18T03:35:06.515Z,41.13
2022-08-18T03:37:52.680Z,37.63
2022-08-18T03:40:38.453Z,27.20
2022-08-18T03:43:51.349Z,39.28
2022-08-18T03:46:30.130Z,38.75
2022-08-18T03:49:18.682Z,39.90
2022-08-18T03:52:09.203Z,43.63
2022-08-18T03:54:54.805Z,42.15
2022-08-18T03:57:40.531Z,42.72
2022-08-18T04:00:27.464Z,40.92
2022-08-18T04:03:12.882Z,41.85
2022-08-18T04:05:58.513Z,43.08
2022-08-18T04:08:44.517Z,45.75
2022-08-18T04:11:36.560Z,45.63
2022-08-18T04:14:25.716Z,45.88
2022-08-18T04:17:11.453Z,36.38
2022-08-18T04:19:57.254Z,44.63
2022-08-18T04:22:45.483Z,41.10
2022-08-18T04:25:33.298Z,35.22
2022-08-18T04:28:19.032Z,39.42
2022-08-18T04:31:10.516Z,40.35
2022-08-18T04:33:58.473Z,37.38
2022-08-18T04:36:44.426Z,41.13
2022-08-18T04:39:30.610Z,38.40
2022-08-18T04:42:16.584Z,39.35
2022-08-18T04:45:02.349Z,39.78
2022-08-18T04:47:47.832Z,43.15
2022-08-18T04:50:36.044Z,42.58
2022-08-18T04:53:40.116Z,39.33
2022-08-18T04:56:33.384Z,39.75
2022-08-18T04:59:19.253Z,39.83
2022-08-18T05:02:11.508Z,37.65
2022-08-18T05:05:01.598Z,39.95
2022-08-18T05:07:48.557Z,38.60
2022-08-18T05:10:34.219Z,39.55
2022-08-18T05:13:20.562Z,37.83
2022-08-18T05:16:11.654Z,38.88
2022-08-18T05:18:57.502Z,36.13
2022-08-18T05:21:43.545Z,38.58
2022-08-18T05:24:36.962Z,36.97
2022-08-18T05:27:23.533Z,34.13
2022-08-18T05:30:11.275Z,38.30
2022-08-18T05:32:59.148Z,36.25
2022-08-18T05:35:48.318Z,36.70
2022-08-18T05:38:37.993Z,37.28
2022-08-18T05:41:28.145Z,36.67
2022-08-18T05:44:18.373Z,37.88
2022-08-18T05:47:10.588Z,33.95
2022-08-18T05:50:02.587Z,34.08
2022-08-18T05:52:53.329Z,33.38
2022-08-18T05:56:06.852Z,33.00
2022-08-18T05:58:57.361Z,30.15
2022-08-18T06:01:47.520Z,29.73
2022-08-18T06:04:49.252Z,30.48
2022-08-18T06:07:42.281Z,29.63
2022-08-18T06:10:28.120Z,28.38
2022-08-18T06:13:14.000Z,27.73
2022-08-18T06:16:58.448Z,27.30
2022-08-18T06:20:02.016Z,26.63
2022-08-18T06:23:15.626Z,25.92
2022-08-18T06:26:15.032Z,26.25
2022-08-18T06:29:25.633Z,26.13
2022-08-18T06:32:35.511Z,27.23
2022-08-18T06:35:23.785Z,26.02
2022-08-18T06:38:37.349Z,26.67
2022-08-18T06:41:42.980Z,25.25
2022-08-18T06:44:33.903Z,26.48
2022-08-18T06:47:38.039Z,27.33
2022-08-18T06:50:28.864Z,27.50
2022-08-18T06:53:19.074Z,28.02
2022-08-18T06:56:26.299Z,22.98
2022-08-18T06:59:26.421Z,27.73
2022-08-18T07:02:24.213Z,29.75
2022-08-18T07:05:26.358Z,30.48
2022-08-18T07:08:49.526Z,30.40
2022-08-18T07:11:43.159Z,30.90
2022-08-18T07:14:28.756Z,30.80
2022-08-18T07:17:43.689Z,28.63
2022-08-18T07:20:30.431Z,30.80
2022-08-18T07:23:30.509Z,28.20
2022-08-18T07:26:17.837Z,33.25
2022-08-18T07:29:15.545Z,25.13
2022-08-18T07:32:22.218Z,29.60
2022-08-18T07:35:11.758Z,28.95
2022-08-18T07:38:13.759Z,31.05
2022-08-18T07:41:26.881Z,29.70
2022-08-18T07:44:26.474Z,29.52
2022-08-18T07:47:29.455Z,28.65
2022-08-18T07:50:31.608Z,27.17
2022-08-18T07:53:56.112Z,29.08
2022-08-18T07:57:06.227Z,25.70
2022-08-18T08:00:03.707Z,26.95
2022-08-18T08:03:45.078Z,26.58
2022-08-18T08:06:41.109Z,18.42
2022-08-18T08:09:41.728Z,28.25
2022-08-18T08:12:31.205Z,26.38
2022-08-18T08:15:36.047Z,24.48
2022-08-18T08:18:45.935Z,28.13
2022-08-18T08:21:40.675Z,27.33
2022-08-18T08:24:54.061Z,28.42
2022-08-18T08:28:00.768Z,29.23
2022-08-18T08:31:36.248Z,22.88
2022-08-18T08:34:31.578Z,28.25
2022-08-18T08:37:39.617Z,28.75
2022-08-18T08:40:33.433Z,27.95
2022-08-18T08:43:36.166Z,24.95
2022-08-18T08:46:31.002Z,29.08
2022-08-18T08:49:39.810Z,29.50
2022-08-18T08:52:35.135Z,19.67
2022-08-18T08:55:25.710Z,26.95
2022-08-18T08:58:41.944Z,23.20
2022-08-18T09:01:56.830Z,28.67
2022-08-18T09:04:54.733Z,25.10
2022-08-18T09:07:58.991Z,31.40
2022-08-18T09:10:59.258Z,25.35
2022-08-18T09:13:57.085Z,22.55
2022-08-18T09:17:12.892Z,28.30
2022-08-18T09:20:27.668Z,30.00
2022-08-18T09:23:44.397Z,31.55
2022-08-18T09:26:43.142Z,31.98
2022-08-18T09:29:37.913Z,27.13
2022-08-18T09:32:52.969Z,27.17
2022-08-18T09:36:10.107Z,24.58
2022-08-18T09:39:57.198Z,28.70
2022-08-18T09:42:57.904Z,25.38
2022-08-18T09:45:57.540Z,27.30
2022-08-18T09:48:45.371Z,29.38
2022-08-18T09:51:40.070Z,26.02
2022-08-18T09:54:33.150Z,18.70
2022-08-18T09:57:19.598Z,27.52
2022-08-18T10:00:12.183Z,30.15
2022-08-18T10:02:59.645Z,27.23
2022-08-18T10:06:12.862Z,28.33
2022-08-18T10:09:36.823Z,21.92
2022-08-18T10:12:41.356Z,18.60
2022-08-18T10:15:40.732Z,27.27
2022-08-18T10:18:50.612Z,27.83
2022-08-18T10:21:59.249Z,21.15
2022-08-18T10:24:52.601Z,22.50
2022-08-18T10:27:56.210Z,20.60
2022-08-18T10:30:56.544Z,21.50
2022-08-18T10:34:16.056Z,23.88
2022-08-18T10:37:11.885Z,26.05
2022-08-18T10:40:14.932Z,25.83
2022-08-18T10:43:46.246Z,27.00
2022-08-18T10:46:36.957Z,26.83
2022-08-18T10:49:33.133Z,26.35
2022-08-18T10:52:35.187Z,21.75
2022-08-18T10:55:43.331Z,15.70
2022-08-18T10:58:55.879Z,19.58
2022-08-18T11:02:20.472Z,19.48
2022-08-18T11:05:09.897Z,15.82
2022-08-18T11:08:04.611Z,21.13
2022-08-18T11:11:34.174Z,22.10
2022-08-18T11:14:35.415Z,14.93
2022-08-18T11:17:35.816Z,21.67
2022-08-18T11:20:31.541Z,20.20
2022-08-18T11:23:17.954Z,15.45
2022-08-18T11:26:15.301Z,17.42
2022-08-18T11:29:25.111Z,12.13
2022-08-18T11:32:17.993Z,15.05
2022-08-18T11:35:19.566Z,20.98
2022-08-18T11:38:13.760Z,20.20
2022-08-18T11:41:19.929Z,16.02
2022-08-18T11:44:14.287Z,18.85
2022-08-18T11:47:30.194Z,17.60
2022-08-18T11:50:28.335Z,15.73
2022-08-18T11:53:35.222Z,19.40
2022-08-18T11:56:20.726Z,20.23
2022-08-18T11:59:52.898Z,15.98
2022-08-18T12:02:31.712Z,20.58
2022-08-18T12:05:18.093Z,20.45
2022-08-18T12:08:09.108Z,19.63
2022-08-18T12:18:05.643Z,16.98
2022-08-18T12:20:51.431Z,19.00
2022-08-18T12:23:48.763Z,17.17
2022-08-18T12:29:43.961Z,19.10
2022-08-18T12:32:46.748Z,15.80
2022-08-18T12:35:35.850Z,17.48
2022-08-18T12:38:21.352Z,16.30
2022-08-18T12:41:11.885Z,17.95
2022-08-18T12:43:59.147Z,14.52
2022-08-18T12:46:45.804Z,15.00
2022-08-18T12:49:34.397Z,14.18
2022-08-18T12:52:21.887Z,17.77
2022-08-18T12:55:21.570Z,15.13
2022-08-18T12:58:08.365Z,12.93
2022-08-18T13:00:55.474Z,17.40
2022-08-18T13:03:44.661Z,13.80
2022-08-18T13:06:46.962Z,15.15
2022-08-18T13:09:53.708Z,18.38
2022-08-18T13:12:40.046Z,13.57
2022-08-18T13:15:26.235Z,18.83
2022-08-18T13:18:14.238Z,12.73
2022-08-18T13:21:00.909Z,17.70
2022-08-18T13:23:46.392Z,17.10
2022-08-18T13:26:38.957Z,19.17
2022-08-18T13:29:27.923Z,18.27
2022-08-18T13:32:14.580Z,17.50
2022-08-18T13:35:09.064Z,18.05
2022-08-18T13:37:58.735Z,18.33
2022-08-18T13:40:47.074Z,16.33
2022-08-18T13:43:37.520Z,12.43
2022-08-18T13:46:29.981Z,13.60
2022-08-18T13:49:23.988Z,12.90
2022-08-18T13:52:33.048Z,10.43
2022-08-18T13:55:21.271Z,9.38
2022-08-18T13:58:17.347Z,11.68
2022-08-18T14:01:42.332Z,12.68
2022-08-18T14:04:20.233Z,10.13
2022-08-18T14:07:11.093Z,8.70
2022-08-18T14:09:58.870Z,10.52
2022-08-18T14:12:51.214Z,7.60
2022-08-18T14:15:39.201Z,7.85
2022-08-18T14:18:29.153Z,10.15
2022-08-18T14:21:34.990Z,9.82
2022-08-18T14:24:42.867Z,8.35
2022-08-18T14:27:36.648Z,8.55
2022-08-18T14:30:22.298Z,8.20
2022-08-18T14:33:11.424Z,8.13
2022-08-18T14:36:06.121Z,9.07
2022-08-18T14:38:55.437Z,10.07
2022-08-18T14:41:54.680Z,6.45
2022-08-18T14:44:41.627Z,8.25
2022-08-18T14:47:32.995Z,6.90
2022-08-18T14:50:23.261Z,7.38
2022-08-18T14:53:13.731Z,7.30
2022-08-18T14:56:01.194Z,6.72
2022-08-18T14:58:47.546Z,6.55
2022-08-18T15:01:36.884Z,6.85
2022-08-18T15:04:28.742Z,6.20
2022-08-18T15:07:18.232Z,6.00
2022-08-18T15:10:14.963Z,5.68
2022-08-18T15:13:02.311Z,5.85
2022-08-18T15:15:51.836Z,6.18
2022-08-18T15:18:37.773Z,6.28
2022-08-18T15:21:41.568Z,6.53
2022-08-18T15:24:45.887Z,6.35
2022-08-18T15:27:42.632Z,5.15
2022-08-18T15:30:28.852Z,5.03
2022-08-18T15:33:15.999Z,4.70
2022-08-18T15:36:04.962Z,5.57
2022-08-18T15:38:56.715Z,5.50
